createdAt,value
2022-10-07T00:01:10.890Z,100.00
2022-10-07T00:03:40.460Z,100.00
2022-10-07T00:06:13.131Z,100.00
2022-10-07T00:08:43.861Z,100.00
2022-10-07T00:11:26.319Z,100.00
2022-10-07T00:13:58.501Z,100.00
2022-10-07T00:16:29.597Z,100.00
2022-10-07T00:19:02.286Z,100.00
2022-10-07T00:21:33.174Z,100.00
2022-10-07T00:24:01.316Z,100.00
2022-10-07T00:26:31.866Z,100.00
2022-10-07T00:29:00.878Z,100.00
2022-10-07T00:31:34.305Z,100.00
2022-10-07T00:34:04.066Z,100.00
2022-10-07T00:36:35.346Z,100.00
2022-10-07T00:39:11.014Z,100.00
2022-10-07T00:41:45.458Z,100.00
2022-10-07T00:44:31.490Z,100.00
2022-10-07T00:47:10.907Z,100.00
2022-10-07T00:49:45.268Z,100.00
2022-10-07T00:52:16.509Z,100.00
2022-10-07T00:54:44.286Z,100.00
2022-10-07T00:57:14.337Z,100.00
2022-10-07T00:59:42.443Z,100.00
2022-10-07T01:02:10.132Z,100.00
2022-10-07T01:04:39.137Z,100.00
2022-10-07T01:07:07.010Z,100.00
2022-10-07T01:09:34.532Z,100.00
2022-10-07T01:12:50.501Z,100.00
2022-10-07T01:15:34.111Z,100.00
2022-10-07T01:18:18.464Z,100.00
2022-10-07T01:21:02.719Z,100.00
2022-10-07T01:23:49.587Z,100.00
2022-10-07T01:26:44.051Z,100.00
2022-10-07T01:29:19.211Z,100.00
2022-10-07T01:31:59.549Z,100.00
2022-10-07T01:34:28.536Z,100.00
2022-10-07T01:37:00.659Z,100.00
2022-10-07T01:39:37.709Z,100.00
2022-10-07T01:42:06.502Z,100.00
2022-10-07T01:44:34.219Z,100.00
2022-10-07T01:47:01.849Z,100.00
2022-10-07T01:49:29.743Z,100.00
2022-10-07T01:52:29.803Z,100.00
2022-10-07T01:55:12.973Z,100.00
2022-10-07T01:57:54.205Z,100.00
2022-10-07T02:00:24.743Z,100.00
2022-10-07T02:03:04.988Z,100.00
2022-10-07T02:05:52.795Z,100.00
2022-10-07T02:08:34.567Z,100.00
2022-10-07T02:11:19.051Z,100.00
2022-10-07T02:14:05.107Z,100.00
2022-10-07T02:17:01.532Z,100.00
2022-10-07T02:19:35.696Z,100.00
2022-10-07T02:22:06.581Z,100.00
2022-10-07T02:24:38.880Z,100.00
2022-10-07T02:27:14.952Z,100.00
2022-10-07T02:29:49.095Z,100.00
2022-10-07T02:32:21.292Z,100.00
2022-10-07T02:34:57.730Z,100.00
2022-10-07T02:37:31.396Z,100.00
2022-10-07T02:39:59.645Z,100.00
2022-10-07T02:42:31.233Z,100.00
2022-10-07T02:45:06.416Z,100.00
2022-10-07T02:47:42.476Z,100.00
2022-10-07T02:50:15.347Z,100.00
2022-10-07T02:52:45.546Z,100.00
2022-10-07T02:55:23.075Z,100.00
2022-10-07T02:57:56.172Z,100.00
2022-10-07T03:00:25.332Z,100.00
2022-10-07T03:02:57.144Z,100.00
2022-10-07T03:05:34.206Z,100.00
2022-10-07T03:08:06.567Z,100.00
2022-10-07T03:10:35.058Z,100.00
2022-10-07T03:13:05.426Z,100.00
2022-10-07T03:15:42.314Z,100.00
2022-10-07T03:18:26.805Z,100.00
2022-10-07T03:21:10.531Z,100.00
2022-10-07T03:23:42.203Z,100.00
2022-10-07T03:26:11.405Z,100.00
2022-10-07T03:28:39.478Z,100.00
2022-10-07T03:31:10.744Z,100.00
2022-10-07T03:33:43.271Z,100.00
2022-10-07T03:36:12.667Z,100.00
2022-10-07T03:38:44.394Z,100.00
2022-10-07T03:41:13.003Z,100.00
2022-10-07T03:43:41.352Z,100.00
2022-10-07T03:46:11.232Z,100.00
2022-10-07T03:48:39.780Z,100.00
2022-10-07T03:51:08.331Z,100.00
2022-10-07T03:53:40.761Z,100.00
2022-10-07T03:56:09.208Z,100.00
2022-10-07T03:58:38.445Z,100.00
2022-10-07T04:01:12.243Z,100.00
2022-10-07T04:03:49.003Z,100.00
2022-10-07T04:06:17.263Z,100.00
2022-10-07T04:08:45.621Z,100.00
2022-10-07T04:11:14.152Z,100.00
2022-10-07T04:13:45.665Z,100.00
2022-10-07T04:16:16.344Z,100.00
2022-10-07T04:18:45.067Z,100.00
2022-10-07T04:21:13.698Z,100.00
2022-10-07T04:23:42.563Z,100.00
2022-10-07T04:26:12.352Z,100.00
2022-10-07T04:28:45.499Z,100.00
2022-10-07T04:31:20.210Z,100.00
2022-10-07T04:33:56.198Z,100.00
2022-10-07T04:36:28.637Z,100.00
2022-10-07T04:39:06.918Z,100.00
2022-10-07T04:41:39.076Z,100.00
2022-10-07T04:44:12.102Z,100.00
2022-10-07T04:46:48.248Z,100.00
2022-10-07T04:49:18.019Z,100.00
2022-10-07T04:51:45.395Z,100.00
2022-10-07T04:54:16.147Z,100.00
2022-10-07T04:56:50.312Z,100.00
2022-10-07T04:59:23.653Z,100.00
2022-10-07T05:01:53.375Z,100.00
2022-10-07T05:04:22.236Z,100.00
2022-10-07T05:06:52.020Z,100.00
2022-10-07T05:09:19.844Z,100.00
2022-10-07T05:11:49.242Z,100.00
2022-10-07T05:14:22.487Z,100.00
2022-10-07T05:16:52.951Z,100.00
2022-10-07T05:19:27.166Z,100.00
2022-10-07T05:21:55.449Z,100.00
2022-10-07T05:24:23.523Z,100.00
2022-10-07T05:26:51.735Z,100.00
2022-10-07T05:29:20.133Z,100.00
2022-10-07T05:31:52.577Z,100.00
2022-10-07T05:34:23.523Z,100.00
2022-10-07T05:36:53.317Z,100.00
2022-10-07T05:39:21.449Z,100.00
2022-10-07T05:41:56.518Z,100.00
2022-10-07T05:44:32.276Z,100.00
2022-10-07T05:47:02.475Z,100.00
2022-10-07T05:49:30.829Z,100.00
2022-10-07T05:51:59.898Z,100.00
2022-10-07T05:54:28.129Z,100.00
2022-10-07T05:56:58.431Z,100.00
2022-10-07T05:59:26.047Z,100.00
2022-10-07T06:01:58.705Z,100.00
2022-10-07T06:04:27.669Z,100.00
2022-10-07T06:06:55.150Z,100.00
2022-10-07T06:09:41.050Z,100.00
2022-10-07T06:12:34.049Z,100.00
2022-10-07T06:15:09.583Z,100.00
2022-10-07T06:17:46.040Z,100.00
2022-10-07T06:20:17.945Z,100.00
2022-10-07T06:22:46.492Z,100.00
2022-10-07T06:25:15.347Z,100.00
2022-10-07T06:27:48.422Z,100.00
2022-10-07T06:30:18.906Z,100.00
2022-10-07T06:32:47.774Z,100.00
2022-10-07T06:35:18.991Z,100.00
2022-10-07T06:37:50.319Z,99.23
2022-10-07T06:40:21.131Z,95.60
2022-10-07T06:42:50.832Z,92.09
2022-10-07T06:45:43.286Z,89.22
2022-10-07T06:48:12.387Z,85.41
2022-10-07T06:50:40.182Z,80.37
2022-10-07T06:53:09.002Z,77.04
2022-10-07T06:55:37.852Z,73.97
2022-10-07T06:58:11.427Z,71.49
2022-10-07T07:00:41.136Z,69.45
2022-10-07T07:03:10.387Z,67.68
2022-10-07T07:05:42.862Z,66.16
2022-10-07T07:08:21.096Z,64.57
2022-10-07T07:10:49.788Z,63.10
2022-10-07T07:13:18.116Z,61.23
2022-10-07T07:15:55.658Z,59.51
2022-10-07T07:18:25.157Z,58.38
2022-10-07T07:20:53.772Z,57.02
2022-10-07T07:23:22.740Z,55.65
2022-10-07T07:25:50.127Z,54.82
2022-10-07T07:28:18.882Z,53.75
2022-10-07T07:30:48.913Z,52.81
2022-10-07T07:33:16.738Z,51.45
2022-10-07T07:35:44.976Z,50.87
2022-10-07T07:38:13.195Z,49.80
2022-10-07T07:40:54.490Z,48.65
2022-10-07T07:43:22.812Z,47.77
2022-10-07T07:45:50.643Z,47.55
2022-10-07T07:48:18.889Z,47.26
2022-10-07T07:50:46.781Z,46.83
2022-10-07T07:53:14.272Z,46.25
2022-10-07T07:55:54.906Z,45.63
2022-10-07T07:58:26.252Z,45.13
2022-10-07T08:01:17.194Z,44.81
2022-10-07T08:03:47.659Z,44.37
2022-10-07T08:06:20.560Z,43.88
2022-10-07T08:08:49.142Z,43.38
2022-10-07T08:11:19.256Z,43.18
2022-10-07T08:13:48.145Z,43.47
2022-10-07T08:16:19.834Z,43.07
2022-10-07T08:18:55.835Z,41.86
2022-10-07T08:21:27.741Z,41.49
2022-10-07T08:23:59.578Z,41.24
2022-10-07T08:26:33.253Z,41.25
2022-10-07T08:29:03.940Z,41.42
2022-10-07T08:31:32.496Z,41.62
2022-10-07T08:34:01.936Z,41.40
2022-10-07T08:36:32.934Z,41.43
2022-10-07T08:39:01.754Z,41.29
2022-10-07T08:42:07.176Z,41.33
2022-10-07T08:44:42.048Z,40.30
2022-10-07T08:47:25.412Z,40.55
2022-10-07T08:50:04.374Z,40.90
2022-10-07T08:52:52.269Z,40.97
2022-10-07T08:55:48.742Z,40.58
2022-10-07T08:58:43.524Z,40.64
2022-10-07T09:01:17.759Z,39.95
2022-10-07T09:03:54.404Z,40.84
2022-10-07T09:06:39.167Z,40.76
2022-10-07T09:09:15.312Z,41.06
2022-10-07T09:11:47.075Z,41.08
2022-10-07T09:14:40.293Z,41.41
2022-10-07T09:17:15.659Z,41.50
2022-10-07T09:19:50.083Z,41.53
2022-10-07T09:22:21.462Z,41.09
2022-10-07T09:24:59.804Z,41.96
2022-10-07T09:27:27.714Z,41.49
2022-10-07T09:29:55.089Z,41.17
2022-10-07T09:32:23.160Z,40.27
2022-10-07T09:34:52.325Z,40.18
2022-10-07T09:37:23.603Z,40.50
2022-10-07T09:40:00.637Z,40.04
2022-10-07T09:42:43.945Z,40.63
2022-10-07T09:45:23.922Z,40.62
2022-10-07T09:47:56.077Z,40.60
2022-10-07T09:50:37.102Z,40.01
2022-10-07T09:53:23.070Z,39.66
2022-10-07T09:55:55.168Z,39.98
2022-10-07T09:58:32.232Z,39.75
2022-10-07T10:01:01.904Z,39.99
2022-10-07T10:03:35.521Z,40.09
2022-10-07T10:06:07.224Z,40.50
2022-10-07T10:08:43.596Z,40.87
2022-10-07T10:11:20.270Z,40.55
2022-10-07T10:13:51.026Z,40.09
2022-10-07T10:16:37.606Z,40.37
2022-10-07T10:19:26.345Z,39.68
2022-10-07T10:21:57.058Z,39.22
2022-10-07T10:24:43.791Z,39.62
2022-10-07T10:28:05.246Z,39.40
2022-10-07T10:30:43.116Z,39.25
2022-10-07T10:33:21.502Z,39.48
2022-10-07T10:36:14.108Z,38.80
2022-10-07T10:39:01.616Z,39.24
2022-10-07T10:41:30.785Z,38.80
2022-10-07T10:44:36.551Z,38.64
2022-10-07T10:47:07.398Z,39.29
2022-10-07T10:49:41.617Z,39.73
2022-10-07T10:52:56.035Z,39.58
2022-10-07T10:55:56.756Z,39.95
2022-10-07T10:58:53.582Z,39.77
2022-10-07T11:01:40.318Z,40.28
2022-10-07T11:04:30.015Z,40.79
2022-10-07T11:07:20.166Z,40.88
2022-10-07T11:09:55.327Z,40.90
2022-10-07T11:12:34.344Z,40.47
2022-10-07T11:15:57.172Z,40.20
2022-10-07T11:18:47.469Z,39.85
2022-10-07T11:21:24.635Z,39.65
2022-10-07T11:23:59.427Z,39.97
2022-10-07T11:26:44.514Z,40.56
2022-10-07T11:29:29.615Z,40.44
2022-10-07T11:32:27.071Z,40.23
2022-10-07T11:35:15.868Z,40.48
2022-10-07T11:37:57.030Z,41.58
2022-10-07T11:40:30.457Z,41.14
2022-10-07T11:43:07.288Z,41.30
2022-10-07T11:45:49.857Z,41.41
2022-10-07T11:48:36.762Z,41.13
2022-10-07T11:51:08.839Z,40.50
2022-10-07T11:53:40.958Z,40.58
2022-10-07T11:56:22.070Z,40.42
2022-10-07T11:59:01.331Z,41.03
2022-10-07T12:01:36.493Z,40.73
2022-10-07T12:04:32.639Z,41.66
2022-10-07T12:07:37.871Z,41.78
2022-10-07T12:10:25.177Z,42.22
2022-10-07T12:12:59.735Z,42.64
2022-10-07T12:15:42.861Z,42.94
2022-10-07T12:18:22.558Z,42.61
2022-10-07T12:20:50.281Z,42.69
2022-10-07T12:23:20.453Z,42.72
2022-10-07T12:26:03.685Z,42.46
2022-10-07T12:28:40.910Z,41.93
2022-10-07T12:31:23.646Z,42.07
2022-10-07T12:33:59.243Z,42.07
2022-10-07T12:36:29.523Z,42.57
2022-10-07T12:38:59.870Z,42.43
2022-10-07T12:41:30.472Z,42.55
2022-10-07T12:44:08.195Z,42.93
2022-10-07T12:47:05.196Z,42.73
2022-10-07T12:49:51.704Z,42.29
2022-10-07T12:52:37.355Z,41.96
2022-10-07T12:55:20.006Z,42.23
2022-10-07T12:57:52.530Z,42.60
2022-10-07T13:00:29.644Z,43.06
2022-10-07T13:03:18.802Z,43.06
2022-10-07T13:06:29.760Z,43.42
2022-10-07T13:09:04.348Z,44.06
2022-10-07T13:11:47.808Z,44.46
2022-10-07T13:14:22.640Z,44.60
2022-10-07T13:17:00.749Z,44.54
2022-10-07T13:19:53.423Z,44.59
2022-10-07T13:22:21.662Z,44.59
2022-10-07T13:24:51.616Z,44.94
2022-10-07T13:27:33.198Z,45.92
2022-10-07T13:30:04.169Z,45.61
2022-10-07T13:32:35.275Z,45.80
2022-10-07T13:35:36.258Z,45.81
2022-10-07T13:38:07.823Z,45.85
2022-10-07T13:40:36.787Z,45.99
2022-10-07T13:43:09.598Z,46.13
2022-10-07T13:45:45.474Z,46.13
2022-10-07T13:48:20.164Z,45.77
2022-10-07T13:50:50.694Z,45.43
2022-10-07T13:53:26.301Z,45.04
2022-10-07T13:56:14.498Z,44.77
2022-10-07T13:58:42.971Z,44.78
2022-10-07T14:01:10.567Z,44.75
2022-10-07T14:04:10.066Z,45.29
2022-10-07T14:06:43.929Z,44.23
2022-10-07T14:09:22.994Z,43.43
2022-10-07T14:12:05.028Z,44.01
2022-10-07T14:14:38.990Z,44.51
2022-10-07T14:17:30.250Z,44.19
2022-10-07T14:20:01.661Z,43.73
2022-10-07T14:22:38.058Z,43.72
2022-10-07T14:25:16.863Z,42.52
2022-10-07T14:27:47.132Z,42.12
2022-10-07T14:31:25.715Z,41.99
2022-10-07T14:34:31.785Z,42.13
2022-10-07T14:37:10.029Z,42.21
2022-10-07T14:39:38.641Z,42.07
2022-10-07T14:42:11.007Z,41.89
2022-10-07T14:44:41.488Z,41.67
2022-10-07T14:47:15.155Z,42.17
2022-10-07T14:49:43.776Z,43.44
2022-10-07T14:52:24.414Z,44.10
2022-10-07T14:54:53.757Z,44.22
2022-10-07T14:57:22.607Z,44.43
2022-10-07T14:59:51.615Z,44.40
2022-10-07T15:02:20.557Z,44.41
2022-10-07T15:04:49.482Z,44.32
2022-10-07T15:07:18.179Z,44.61
2022-10-07T15:09:47.218Z,45.11
2022-10-07T15:12:15.986Z,44.80
2022-10-07T15:14:43.681Z,44.09
2022-10-07T15:17:13.043Z,44.35
2022-10-07T15:19:40.930Z,45.00
2022-10-07T15:22:08.348Z,45.31
2022-10-07T15:24:36.687Z,45.52
2022-10-07T15:27:06.527Z,46.02
2022-10-07T15:29:34.304Z,45.95
2022-10-07T15:32:01.678Z,45.25
2022-10-07T15:34:29.507Z,44.91
2022-10-07T15:36:59.680Z,45.10
2022-10-07T15:39:29.522Z,45.57
2022-10-07T15:41:56.842Z,45.55
2022-10-07T15:44:24.601Z,45.37
2022-10-07T15:46:54.456Z,45.37
2022-10-07T15:49:22.316Z,45.15
2022-10-07T15:51:50.669Z,45.19
2022-10-07T15:54:18.935Z,45.53
2022-10-07T15:56:50.045Z,45.56
2022-10-07T15:59:18.789Z,45.64
2022-10-07T16:01:49.719Z,45.89
2022-10-07T16:04:18.546Z,46.03
2022-10-07T16:06:51.445Z,46.24
2022-10-07T16:09:20.773Z,46.25
2022-10-07T16:11:48.800Z,45.96
2022-10-07T16:14:17.579Z,46.11
2022-10-07T16:16:45.549Z,46.65
2022-10-07T16:19:13.427Z,46.73
2022-10-07T16:21:43.122Z,46.48
2022-10-07T16:24:17.361Z,47.42
2022-10-07T16:26:46.386Z,48.10
2022-10-07T16:29:35.134Z,48.09
2022-10-07T16:32:05.367Z,48.19
2022-10-07T16:34:32.732Z,48.48
2022-10-07T16:37:00.227Z,48.66
2022-10-07T16:39:28.109Z,49.40
2022-10-07T16:41:56.695Z,49.52
2022-10-07T16:44:25.731Z,49.71
2022-10-07T16:46:57.499Z,49.84
2022-10-07T16:49:27.465Z,50.22
2022-10-07T16:51:55.260Z,50.48
2022-10-07T16:54:23.749Z,50.74
2022-10-07T16:56:53.619Z,51.21
2022-10-07T16:59:24.204Z,51.29
2022-10-07T17:01:57.082Z,51.66
2022-10-07T17:04:25.713Z,51.88
2022-10-07T17:06:53.721Z,52.38
2022-10-07T17:09:26.569Z,52.22
2022-10-07T17:11:54.402Z,52.39
2022-10-07T17:14:23.031Z,52.93
2022-10-07T17:16:57.822Z,53.34
2022-10-07T17:19:29.518Z,53.80
2022-10-07T17:22:00.843Z,54.31
2022-10-07T17:24:28.190Z,54.72
2022-10-07T17:26:56.478Z,54.99
2022-10-07T17:29:26.962Z,55.50
2022-10-07T17:31:57.566Z,56.06
2022-10-07T17:34:25.034Z,56.40
2022-10-07T17:36:52.873Z,57.02
2022-10-07T17:39:20.638Z,57.36
2022-10-07T17:41:48.918Z,57.81
2022-10-07T17:44:16.928Z,58.11
2022-10-07T17:46:45.429Z,58.40
2022-10-07T17:49:16.073Z,59.04
2022-10-07T17:51:45.112Z,59.31
2022-10-07T17:54:14.013Z,59.80
2022-10-07T17:56:45.989Z,60.60
2022-10-07T17:59:14.485Z,61.28
2022-10-07T18:01:42.243Z,61.41
2022-10-07T18:04:20.998Z,61.89
2022-10-07T18:06:51.628Z,62.27
2022-10-07T18:09:22.255Z,62.68
2022-10-07T18:12:10.415Z,63.28
2022-10-07T18:14:56.761Z,63.58
2022-10-07T18:17:24.876Z,64.41
2022-10-07T18:19:52.558Z,64.79
2022-10-07T18:22:21.464Z,64.75
2022-10-07T18:24:50.708Z,65.39
2022-10-07T18:27:18.496Z,65.54
2022-10-07T18:29:45.957Z,65.65
2022-10-07T18:32:14.284Z,65.94
2022-10-07T18:34:41.715Z,66.62
2022-10-07T18:37:09.598Z,67.10
2022-10-07T18:39:36.995Z,66.85
2022-10-07T18:42:05.367Z,67.51
2022-10-07T18:44:35.953Z,67.69
2022-10-07T18:47:03.419Z,68.07
2022-10-07T18:49:30.764Z,68.22
2022-10-07T18:51:58.314Z,68.71
2022-10-07T18:54:25.690Z,68.79
2022-10-07T18:56:53.244Z,68.85
2022-10-07T18:59:20.709Z,69.45
2022-10-07T19:01:50.889Z,70.65
2022-10-07T19:04:19.985Z,71.50
2022-10-07T19:06:47.997Z,71.77
2022-10-07T19:09:19.204Z,72.05
2022-10-07T19:11:50.009Z,72.22
2022-10-07T19:14:17.858Z,73.08
2022-10-07T19:16:49.277Z,73.93
2022-10-07T19:19:22.104Z,74.05
2022-10-07T19:21:55.167Z,75.06
2022-10-07T19:24:44.766Z,75.58
2022-10-07T19:27:12.630Z,76.20
2022-10-07T19:29:39.998Z,77.42
2022-10-07T19:32:09.210Z,77.26
2022-10-07T19:34:37.839Z,77.65
2022-10-07T19:37:05.425Z,78.50
2022-10-07T19:39:34.007Z,79.10
2022-10-07T19:42:01.837Z,79.96
2022-10-07T19:44:29.263Z,80.69
2022-10-07T19:46:58.156Z,81.53
2022-10-07T19:49:25.963Z,82.44
2022-10-07T19:51:53.763Z,83.32
2022-10-07T19:54:21.934Z,83.65
2022-10-07T19:56:49.957Z,83.52
2022-10-07T19:59:17.397Z,83.81
2022-10-07T20:01:47.611Z,83.83
2022-10-07T20:04:20.658Z,85.19
2022-10-07T20:06:49.497Z,84.94
2022-10-07T20:09:18.643Z,85.87
2022-10-07T20:11:47.321Z,85.71
2022-10-07T20:14:16.620Z,85.76
2022-10-07T20:16:44.417Z,85.52
2022-10-07T20:19:15.527Z,86.09
2022-10-07T20:21:43.485Z,86.60
2022-10-07T20:24:16.237Z,86.85
2022-10-07T20:26:46.088Z,86.93
2022-10-07T20:29:16.240Z,86.83
2022-10-07T20:31:45.185Z,87.20
2022-10-07T20:34:16.111Z,87.07
2022-10-07T20:36:45.188Z,87.93
2022-10-07T20:39:40.833Z,88.25
2022-10-07T20:42:24.501Z,87.97
2022-10-07T20:44:53.217Z,88.02
2022-10-07T20:47:22.538Z,88.55
2022-10-07T20:49:51.629Z,89.24
2022-10-07T20:52:26.076Z,89.58
2022-10-07T20:54:55.207Z,90.51
2022-10-07T20:57:27.835Z,90.94
2022-10-07T20:59:56.080Z,91.54
2022-10-07T21:02:25.192Z,91.22
2022-10-07T21:04:53.741Z,90.57
2022-10-07T21:07:22.272Z,91.15
2022-10-07T21:09:49.832Z,91.42
2022-10-07T21:12:19.059Z,92.04
2022-10-07T21:14:48.660Z,92.55
2022-10-07T21:17:17.066Z,93.10
2022-10-07T21:19:45.575Z,93.03
2022-10-07T21:22:13.607Z,92.97
2022-10-07T21:24:42.920Z,93.29
2022-10-07T21:27:10.750Z,93.82
2022-10-07T21:29:41.008Z,94.21
2022-10-07T21:32:10.271Z,93.15
2022-10-07T21:34:38.875Z,94.35
2022-10-07T21:37:08.738Z,94.53
2022-10-07T21:39:36.189Z,94.31
2022-10-07T21:42:05.632Z,94.44
2022-10-07T21:44:34.722Z,95.83
2022-10-07T21:47:04.946Z,95.33
2022-10-07T21:49:33.206Z,95.27
2022-10-07T21:52:01.453Z,94.95
2022-10-07T21:54:30.314Z,95.70
2022-10-07T21:56:58.554Z,95.27
2022-10-07T21:59:25.890Z,95.78
2022-10-07T22:01:54.057Z,96.25
2022-10-07T22:04:21.867Z,96.80
2022-10-07T22:07:08.338Z,96.08
2022-10-07T22:09:36.273Z,96.99
2022-10-07T22:12:03.686Z,97.77
2022-10-07T22:14:31.937Z,98.19
2022-10-07T22:17:00.509Z,97.87
2022-10-07T22:19:28.718Z,98.24
2022-10-07T22:21:56.161Z,98.32
2022-10-07T22:24:25.655Z,98.62
2022-10-07T22:26:53.502Z,98.99
2022-10-07T22:29:23.017Z,99.69
2022-10-07T22:31:50.422Z,98.69
2022-10-07T22:34:36.763Z,99.13
2022-10-07T22:37:05.740Z,98.12
2022-10-07T22:39:33.538Z,98.90
2022-10-07T22:42:01.639Z,98.79
2022-10-07T22:44:29.024Z,99.57
2022-10-07T22:46:59.468Z,99.70
2022-10-07T22:49:30.227Z,100.00
2022-10-07T22:52:00.320Z,100.00
2022-10-07T22:54:28.027Z,100.00
2022-10-07T22:56:55.829Z,100.00
2022-10-07T22:59:23.176Z,100.00
2022-10-07T23:01:50.468Z,100.00
2022-10-07T23:04:20.453Z,100.00
2022-10-07T23:06:51.424Z,100.00
2022-10-07T23:09:18.830Z,100.00
2022-10-07T23:11:47.175Z,100.00
2022-10-07T23:14:14.523Z,100.00
2022-10-07T23:16:42.423Z,100.00
2022-10-07T23:19:10.672Z,100.00
2022-10-07T23:21:38.535Z,100.00
2022-10-07T23:24:08.091Z,100.00
2022-10-07T23:26:36.762Z,100.00
2022-10-07T23:29:04.897Z,100.00
2022-10-07T23:31:33.371Z,100.00
2022-10-07T23:34:02.439Z,100.00
2022-10-07T23:36:31.033Z,100.00
2022-10-07T23:39:00.103Z,100.00
2022-10-07T23:41:31.123Z,100.00
2022-10-07T23:44:02.264Z,100.00
2022-10-07T23:46:39.788Z,100.00
2022-10-07T23:49:07.634Z,100.00
2022-10-07T23:51:35.177Z,100.00
2022-10-07T23:54:05.160Z,100.00
2022-10-07T23:56:33.384Z,100.00
2022-10-07T23:59:02.940Z,100.00
